PDT,Max TemperatureF,Mean TemperatureF,Min TemperatureF,Max Dew PointF,MeanDew PointF,Min DewpointF,Max Humidity, Mean Humidity, Min Humidity, Max Sea Level PressureIn, Mean Sea Level PressureIn, Min Sea Level PressureIn, Max VisibilityMiles, Mean VisibilityMiles, Min VisibilityMiles, Max Wind SpeedMPH, Mean Wind SpeedMPH, Max Gust SpeedMPH,PrecipitationIn, CloudCover, Events, WindDirDegrees
2013-3-1,82,64,45,26,18,11,36,20,8,30.39,30.30,30.22,10,10,10,10,5,,0.00,0,,234
2013-3-2,84,66,48,34,27,19,36,23,12,30.28,30.18,30.08,10,10,2,8,4,,0.00,0,,252
2013-3-3,86,72,57,40,26,20,34,21,10,30.06,29.98,29.90,10,10,7,25,8,33,0.00,0,,238
2013-3-4,80,68,57,42,36,33,47,34,19,30.05,30.00,29.96,10,10,10,17,8,16,0.00,1,,255
2013-3-5,80,66,52,46,41,36,55,41,23,30.09,30.02,29.94,10,10,9,17,5,,0.00,3,,189
2013-3-6,79,67,55,40,36,29,49,34,17,30.07,29.97,29.85,10,10,9,25,14,32,0.00,1,,273
2013-3-7,75,64,53,42,38,36,55,40,27,29.98,29.93,29.86,10,10,10,25,11,33,0.00,4,,275
2013-3-8,64,56,48,47,39,32,83,54,30,30.03,29.90,29.79,10,10,10,33,15,43,0.02,4,Rain,255
2013-3-9,71,60,48,39,37,34,66,44,27,30.16,30.08,30.02,10,10,10,22,15,32,0.00,2,,250
2013-3-10,77,64,50,36,25,14,59,28,10,30.27,30.20,30.14,10,10,10,20,9,26,0.00,0,,299
2013-3-11,82,64,45,31,23,18,40,24,10,30.21,30.13,30.02,10,10,10,10,6,,0.00,0,,261
2013-3-12,88,68,48,34,25,19,41,23,9,30.12,30.06,30.01,10,10,10,9,5,,0.00,0,,262
2013-3-13,93,71,51,36,28,24,40,22,10,30.15,30.08,30.02,10,10,10,10,6,,0.00,0,,265
2013-3-14,96,75,55,41,32,27,37,23,10,30.11,30.03,29.96,10,10,10,9,6,,0.00,0,,249
2013-3-15,95,76,60,46,37,26,38,24,14,29.98,29.91,29.82,10,10,3,17,7,,0.00,2,,226
2013-3-16,96,76,57,43,33,24,51,23,8,29.86,29.80,29.73,10,10,10,18,8,24,0.00,1,,200
2013-3-17,91,75,60,43,32,21,51,22,8,29.91,29.84,29.76,10,10,10,16,8,16,0.00,0,,251
2013-3-18,87,70,52,51,38,28,69,35,13,29.99,29.92,29.87,10,10,9,13,6,,0.00,2,,187
2013-3-19,91,73,55,51,39,32,67,32,12,30.01,29.97,29.91,10,10,8,16,8,18,0.00,3,,228
2013-3-20,93,74,57,47,36,19,56,27,10,30.01,29.94,29.85,10,10,10,24,8,28,0.00,4,,234
2013-3-21,88,76,66,44,37,28,35,26,12,29.85,29.77,29.70,10,10,10,26,15,34,0.00,3,,266
2013-3-22,88,73,60,45,33,16,43,27,7,29.82,29.76,29.70,10,10,10,18,12,20,0.00,0,,268
2013-3-23,81,69,55,49,25,8,56,25,6,30.05,29.95,29.83,10,10,10,16,7,22,0.00,0,,58
2013-3-24,82,65,48,37,21,8,47,21,6,30.04,29.97,29.90,10,10,10,7,4,,0.00,0,,241
2013-3-25,86,68,51,39,29,20,47,25,9,30.00,29.93,29.86,10,10,9,9,4,,0.00,1,,178
2013-3-26,89,73,57,41,32,21,51,25,9,29.91,29.86,29.78,10,10,7,23,7,30,0.00,2,,192
2013-3-27,90,76,63,34,28,23,24,18,12,29.96,29.89,29.84,10,10,10,25,11,25,0.00,2,,251
2013-3-28,87,72,59,44,39,31,42,30,16,30.04,29.98,29.94,10,10,10,20,10,,0.00,2,,181
2013-3-29,87,70,54,52,45,39,75,40,18,30.09,30.02,29.98,10,10,7,7,5,,0.00,1,,139
2013-3-30,93,78,64,49,38,24,54,26,9,30.04,29.98,29.91,10,10,10,20,7,,0.00,1,,222
2013-3-31,87,75,66,45,39,29,39,28,19,30.04,29.99,29.94,10,10,10,30,20,37,0.00,0,,261